首页
METAR-TAF:

METAR-TAF

机场 :

本-古里安国际机场

特拉维夫 / 本·古里安, 以色列

纬度: 32-00N, 经度: 034-54E, 海拔: 40米

当前天气观测

该预报发布于8分钟前的03:20 UTC
风速5节,风向东转东南
温度 23°C
湿度 41%
气压 1009 hPa
能见度10公里或以上
1500米以下无云,无积雨云

METAR: LLBG 250320Z 12005KT CAVOK 23/09 Q1009 NOSIG

时间: 06:28 (03:28 UTC)

预报

该预报发布于4小时和17分钟前的23:11 UTC
预报有效从25日的 00点(UTC)到 25日的 24点(UTC)
风速4节,风向多变
能见度10公里或以上
1500米以下无云,无积雨云
成为
从 25日的 06点(UTC)到 25日的 08点(UTC)
风速8节,风向西转西南
成为
从 25日的 10点(UTC)到 25日的 12点(UTC)
风速12节,风向北转西北
几率 30%
从 25日的 12点(UTC)到 25日的 16点(UTC)
能見度: 8000
少量云层高于9000英尺, 塔状积云.
成为
从 25日的 17点(UTC)到 25日的 19点(UTC)
风速4节,风向多变
能見度: 7000
散云层高于1000英尺
几率 40%
从 25日的 19点(UTC)到 25日的 22点(UTC)
能見度: 5000
多云层高于1000英尺
轻雾

TAF: LLBG 242311Z 2500/2524 VRB04KT CAVOK BECMG 2506/2508 25008KT BECMG 2510/2512 34012KT PROB30 2512/2516 8000 RA FEW090TCU BECMG 2517/2519 VRB04KT 7000 SCT010 PROB40 2519/2522 5000 BR BKN010 TX32/2511Z TN21/2503Z

超过4000个机场的气象观测和天气预报(METAR&TAF报告)。

可查询的气象台以黄色和红色小点在地图上表示。

将鼠标移到小点上方,可查看气象台名称。

然后点击查看天气观测和预报。

如需切换地图:点击带黑十字的绿色按钮放大地图;点击带横线的绿色按钮缩小地图;或者点击绿色箭头查看邻近地区的地图。


METAR-TAF: